Time;durP1;ratioP1;P1;durP2;ratioP2;P2;SDS_P1;SDS_P2;PMS_P1;PMS_P2;Temp;Humidity;BMP_temperature;BMP_pressure;BME280_temperature;BME280_humidity;BME280_pressure;Samples;Min_cycle;Max_cycle;Signal;HPM_P1;HPM_P2
2021/06/18 00:02:08;;;;;;;13.37;5.50;;;;;;;25.63;44.89;96340.47;5054840;28;20175;-59
2021/06/18 00:04:34;;;;;;;10.13;5.23;;;;;;;25.91;44.04;96342.59;5053834;28;20209;-60
2021/06/18 00:07:00;;;;;;;7.90;5.23;;;;;;;25.94;44.09;96340.44;5048667;28;20199;-62
2021/06/18 00:09:25;;;;;;;5.50;4.90;;;;;;;25.87;44.12;96335.34;5036216;28;20209;-61
2021/06/18 00:11:51;;;;;;;6.40;5.30;;;;;;;25.93;43.93;96344.97;5055330;28;20183;-61
2021/06/18 00:14:16;;;;;;;9.30;5.27;;;;;;;26.01;43.52;96336.41;5046307;28;20214;-59
2021/06/18 00:16:42;;;;;;;7.87;5.00;;;;;;;25.64;44.95;96337.53;5056243;28;20294;-61
2021/06/18 00:19:07;;;;;;;6.60;4.83;;;;;;;25.47;45.39;96343.16;5055134;28;20237;-59
2021/06/18 00:21:33;;;;;;;7.17;5.43;;;;;;;25.51;44.95;96340.78;5052073;28;20179;-59
2021/06/18 00:23:59;;;;;;;5.83;5.23;;;;;;;25.51;44.68;96338.09;5054676;28;20380;-59
2021/06/18 00:26:24;;;;;;;5.17;4.77;;;;;;;25.88;44.42;96335.06;5054593;28;20646;-60
2021/06/18 00:28:51;;;;;;;6.30;4.97;;;;;;;26.29;43.86;96339.53;5040091;28;20606;-59
2021/06/18 00:31:17;;;;;;;7.53;5.57;;;;;;;26.66;42.63;96348.22;5053619;28;20182;-62
2021/06/18 00:33:42;;;;;;;9.27;5.40;;;;;;;26.79;42.04;96341.44;5047219;28;20449;-61
2021/06/18 00:36:08;;;;;;;9.80;5.27;;;;;;;26.65;41.62;96346.63;5054947;28;20449;-59
2021/06/18 00:38:34;;;;;;;5.70;5.17;;;;;;;26.54;42.76;96343.16;5052477;28;20654;-61
2021/06/18 00:40:59;;;;;;;6.13;4.73;;;;;;;26.71;42.12;96345.53;5054338;28;20273;-61
2021/06/18 00:43:25;;;;;;;7.40;5.30;;;;;;;26.85;41.60;96348.41;5053729;28;20262;-63
2021/06/18 00:45:51;;;;;;;7.27;4.73;;;;;;;26.67;41.76;96352.53;5053670;28;20179;-60
2021/06/18 00:48:20;;;;;;;6.60;5.50;;;;;;;26.36;42.17;96344.59;5054027;28;20202;-62
2021/06/18 00:50:46;;;;;;;14.30;5.23;;;;;;;26.18;42.85;96346.84;5053821;28;20187;-62
2021/06/18 00:53:12;;;;;;;8.70;5.60;;;;;;;26.07;42.90;96346.03;5052149;28;20421;-63
2021/06/18 00:55:37;;;;;;;5.93;4.80;;;;;;;25.89;43.53;96344.72;5054327;28;20276;-59
2021/06/18 00:58:03;;;;;;;8.03;5.07;;;;;;;25.75;43.28;96344.50;5044577;28;20940;-58
2021/06/18 01:00:29;;;;;;;13.23;4.80;;;;;;;25.71;43.01;96340.75;5035092;28;20245;-62
2021/06/18 01:02:55;;;;;;;5.70;4.70;;;;;;;25.41;42.46;96338.91;5050598;28;20651;-60
2021/06/18 01:05:21;;;;;;;5.23;4.73;;;;;;;25.56;42.71;96341.56;5053042;28;20658;-60
2021/06/18 01:08:24;;;;;;;6.40;5.23;;;;;;;25.36;43.35;96347.72;5052351;28;20199;-61
2021/06/18 01:11:10;;;;;;;5.23;4.47;;;;;;;25.27;43.21;96344.78;5053291;28;20436;-62
2021/06/18 01:13:58;;;;;;;9.50;4.83;;;;;;;25.20;43.38;96351.47;5053630;28;20476;-60
2021/06/18 01:16:34;;;;;;;9.93;4.80;;;;;;;25.23;43.51;96354.41;5051881;28;20480;-60
2021/06/18 01:19:19;;;;;;;7.87;4.70;;;;;;;25.18;43.98;96364.31;5053579;28;20456;-60
2021/06/18 01:21:47;;;;;;;10.20;4.93;;;;;;;25.23;44.30;96370.50;5048797;28;20425;-62
2021/06/18 01:24:32;;;;;;;8.57;4.87;;;;;;;25.05;44.68;96369.13;5051407;28;20421;-59
2021/06/18 01:27:28;;;;;;;9.00;5.10;;;;;;;25.47;43.74;96366.53;5051902;28;20433;-62
2021/06/18 01:29:58;;;;;;;6.53;5.33;;;;;;;25.64;43.67;96364.38;5053268;28;20505;-62
2021/06/18 01:32:55;;;;;;;7.73;5.00;;;;;;;25.53;44.41;96354.69;5027753;28;20829;-59
2021/06/18 01:35:21;;;;;;;7.87;5.50;;;;;;;25.27;44.44;96360.03;5051933;28;20975;-62
2021/06/18 01:37:50;;;;;;;8.87;5.20;;;;;;;25.47;43.83;96356.56;5051248;28;20920;-61
2021/06/18 01:40:17;;;;;;;9.23;5.30;;;;;;;25.67;43.59;96354.97;5050681;28;20429;-62
2021/06/18 01:42:45;;;;;;;8.17;5.40;;;;;;;25.78;43.23;96359.25;5052016;28;20497;-62
2021/06/18 01:45:13;;;;;;;6.27;5.00;;;;;;;25.61;43.03;96356.84;5051310;28;20463;-63
2021/06/18 01:47:40;;;;;;;5.73;5.23;;;;;;;25.52;43.74;96356.59;5041757;28;20439;-60
2021/06/18 01:50:07;;;;;;;8.00;5.10;;;;;;;25.78;43.21;96364.59;5047618;28;20422;-61
2021/06/18 01:52:32;;;;;;;5.90;5.30;;;;;;;25.54;44.00;96359.00;5047543;28;20429;-62
2021/06/18 01:54:59;;;;;;;7.70;4.93;;;;;;;25.82;43.65;96354.97;5048846;28;20971;-61
2021/06/18 01:57:26;;;;;;;5.73;5.00;;;;;;;26.03;42.75;96360.25;5040574;28;20207;-62
2021/06/18 01:59:54;;;;;;;8.90;5.07;;;;;;;26.42;42.06;96362.31;5051279;28;20790;-61
2021/06/18 02:02:21;;;;;;;6.90;4.90;;;;;;;26.64;41.83;96359.25;5020945;28;20446;-62
2021/06/18 02:04:47;;;;;;;7.40;5.13;;;;;;;26.85;41.67;96355.66;5031136;28;20517;-61
2021/06/18 02:07:13;;;;;;;5.10;4.70;;;;;;;26.91;41.13;96355.34;5049401;28;20948;-61
2021/06/18 02:09:40;;;;;;;6.20;5.20;;;;;;;26.81;41.21;96361.63;5044378;28;20179;-59
2021/06/18 02:12:06;;;;;;;5.93;5.30;;;;;;;26.67;41.51;96369.44;5048638;28;20183;-61
2021/06/18 02:14:33;;;;;;;6.77;4.60;;;;;;;26.56;42.02;96357.13;5057099;28;20453;-61
2021/06/18 02:17:01;;;;;;;9.23;5.13;;;;;;;26.50;42.15;96356.34;5067733;28;20460;-61
2021/06/18 02:19:28;;;;;;;7.07;5.03;;;;;;;26.60;42.14;96349.31;5044118;28;20436;-60
2021/06/18 02:21:56;;;;;;;9.40;5.10;;;;;;;26.59;41.72;96351.22;5048726;28;20429;-60
2021/06/18 02:24:24;;;;;;;5.43;4.93;;;;;;;26.49;42.32;96348.59;5049240;28;20480;-60
2021/06/18 02:26:49;;;;;;;6.13;4.77;;;;;;;26.53;42.08;96352.31;5047332;28;20438;-60
2021/06/18 02:29:15;;;;;;;8.57;5.53;;;;;;;26.48;41.77;96347.75;5060586;28;20436;-62
2021/06/18 02:31:43;;;;;;;7.60;5.37;;;;;;;26.27;42.96;96348.94;5038860;28;20196;-61
2021/06/18 02:34:11;;;;;;;7.77;5.00;;;;;;;26.06;43.23;96346.31;5049204;28;20275;-61
2021/06/18 02:36:40;;;;;;;6.60;5.43;;;;;;;25.76;43.61;96345.28;5051864;28;20450;-58
2021/06/18 02:39:07;;;;;;;11.47;5.23;;;;;;;25.64;43.85;96347.47;5049271;28;20468;-62
2021/06/18 02:41:33;;;;;;;8.47;5.00;;;;;;;25.48;43.93;96333.25;5051768;28;20508;-61
2021/06/18 02:44:02;;;;;;;5.87;4.50;;;;;;;25.67;44.39;96336.19;5035241;28;21011;-60
2021/06/18 02:46:30;;;;;;;9.87;5.30;;;;;;;25.88;43.71;96335.06;5051600;28;20186;-59
2021/06/18 02:48:58;;;;;;;6.60;5.30;;;;;;;25.89;42.40;96333.19;5051830;28;20954;-58
2021/06/18 02:51:31;;;;;;;5.50;4.80;;;;;;;25.79;42.75;96336.72;5052552;28;20426;-60
2021/06/18 02:54:14;;;;;;;7.33;5.60;;;;;;;25.67;42.71;96341.56;5034561;28;20470;-62
2021/06/18 02:56:49;;;;;;;6.37;4.90;;;;;;;25.44;43.35;96339.16;5045142;28;20469;-61
2021/06/18 02:59:21;;;;;;;7.03;5.60;;;;;;;24.45;46.14;96356.09;5046083;28;20425;-63
2021/06/18 03:01:47;;;;;;;7.27;5.37;;;;;;;23.42;49.89;96401.75;5040987;28;20422;-60
2021/06/18 03:04:21;;;;;;;8.00;5.83;;;;;;;23.07;50.45;96394.97;5049790;28;20968;-62
2021/06/18 03:06:49;;;;;;;5.67;5.17;;;;;;;23.64;49.29;96384.81;5049487;28;20483;-61
2021/06/18 03:09:16;;;;;;;6.60;5.80;;;;;;;23.96;48.26;96385.84;5047013;28;20465;-61
2021/06/18 03:11:42;;;;;;;9.90;6.43;;;;;;;24.49;46.60;96394.69;5049901;28;20990;-63
2021/06/18 03:14:10;;;;;;;7.67;5.70;;;;;;;24.65;45.90;96392.88;5033267;28;20447;-61
2021/06/18 03:16:38;;;;;;;6.87;6.00;;;;;;;24.85;45.47;96391.34;5045427;28;20500;-60
2021/06/18 03:19:06;;;;;;;8.00;5.80;;;;;;;24.87;46.21;96404.50;5049114;28;20421;-61
2021/06/18 03:21:35;;;;;;;6.10;5.50;;;;;;;24.85;45.06;96394.00;5038098;28;20522;-62
2021/06/18 03:24:01;;;;;;;8.70;5.63;;;;;;;25.22;45.36;96390.31;5042774;28;20483;-61
2021/06/18 03:26:27;;;;;;;8.50;5.43;;;;;;;25.51;43.95;96403.25;5022158;28;20426;-61
2021/06/18 03:28:54;;;;;;;7.00;5.47;;;;;;;25.44;43.99;96397.38;5049321;28;20418;-62
2021/06/18 03:31:20;;;;;;;8.43;5.70;;;;;;;25.21;44.51;96399.44;5038372;28;20433;-62
2021/06/18 03:33:46;;;;;;;7.87;5.40;;;;;;;25.27;44.79;96402.94;5013703;28;20429;-63
2021/06/18 03:36:12;;;;;;;8.73;5.50;;;;;;;25.50;44.45;96412.38;5047959;28;20457;-61
2021/06/18 03:38:38;;;;;;;5.80;5.27;;;;;;;25.70;43.56;96400.84;5051154;28;20202;-60
2021/06/18 03:41:04;;;;;;;7.90;5.47;;;;;;;25.72;43.93;96401.38;5051614;28;20434;-60
2021/06/18 03:43:30;;;;;;;6.40;5.80;;;;;;;25.97;43.58;96406.97;5050836;28;20194;-61
2021/06/18 03:46:00;;;;;;;6.80;4.87;;;;;;;26.18;42.83;96413.13;5052311;28;20905;-62
2021/06/18 03:48:27;;;;;;;8.87;5.77;;;;;;;26.35;42.51;96419.00;5017903;28;20207;-60
2021/06/18 03:50:53;;;;;;;7.33;5.87;;;;;;;26.43;42.22;96414.94;5050545;28;20422;-60
2021/06/18 03:53:18;;;;;;;10.50;6.03;;;;;;;26.35;42.64;96412.81;5049012;28;20479;-60
2021/06/18 03:55:47;;;;;;;8.03;5.70;;;;;;;26.37;42.08;96413.34;5046399;28;20211;-59
2021/06/18 03:58:13;;;;;;;5.70;5.20;;;;;;;26.32;42.81;96405.31;5048820;28;20199;-62
2021/06/18 04:00:42;;;;;;;6.87;5.03;;;;;;;26.37;42.67;96406.09;5047444;28;20471;-62
2021/06/18 04:03:08;;;;;;;6.70;5.70;;;;;;;26.36;42.89;96401.00;5026616;28;20559;-62
2021/06/18 04:05:35;;;;;;;6.67;5.43;;;;;;;26.42;42.76;96405.28;5039460;28;20421;-62
2021/06/18 04:08:01;;;;;;;7.10;5.53;;;;;;;26.47;42.63;96405.25;5049656;28;20449;-62
2021/06/18 04:10:27;;;;;;;7.20;5.70;;;;;;;26.28;42.58;96409.63;5050443;28;20417;-62
2021/06/18 04:12:53;;;;;;;7.07;5.60;;;;;;;25.85;43.58;96408.06;5039863;28;20928;-62
2021/06/18 04:15:23;;;;;;;8.60;5.70;;;;;;;25.73;43.66;96413.72;5027995;28;20874;-62
2021/06/18 04:17:49;;;;;;;9.67;6.30;;;;;;;25.13;44.56;96416.88;5036407;28;20468;-62
2021/06/18 04:20:15;;;;;;;6.63;5.90;;;;;;;25.23;44.23;96416.06;5051342;28;20529;-67
2021/06/18 04:22:41;;;;;;;11.07;7.17;;;;;;;25.12;44.43;96417.13;5048736;28;20464;-68
2021/06/18 04:25:08;;;;;;;6.47;5.83;;;;;;;25.01;44.84;96424.34;5050620;28;20534;-68
2021/06/18 04:27:33;;;;;;;8.47;5.70;;;;;;;25.13;44.37;96418.72;5040128;28;20614;-67
2021/06/18 04:29:59;;;;;;;7.20;5.40;;;;;;;25.11;44.42;96420.88;5051478;28;20448;-67
2021/06/18 04:32:24;;;;;;;6.90;5.93;;;;;;;25.23;44.52;96418.75;5034209;28;20229;-67
2021/06/18 04:34:50;;;;;;;6.00;5.40;;;;;;;25.12;44.67;96420.63;5050224;28;20195;-67
2021/06/18 04:37:16;;;;;;;6.20;5.57;;;;;;;25.26;44.65;96420.91;5049797;28;20207;-67
2021/06/18 04:39:41;;;;;;;6.13;5.50;;;;;;;25.19;44.69;96423.06;5050216;28;20218;-67
2021/06/18 04:42:07;;;;;;;5.63;5.10;;;;;;;25.13;45.14;96434.81;5050013;28;20305;-68
2021/06/18 04:44:33;;;;;;;8.67;5.13;;;;;;;25.21;44.94;96444.22;5050071;28;20183;-68
2021/06/18 04:46:58;;;;;;;8.00;5.10;;;;;;;25.56;43.62;96443.50;5053072;28;20257;-67
2021/06/18 04:49:24;;;;;;;5.50;5.00;;;;;;;25.67;43.38;96443.50;5053682;28;20195;-67
2021/06/18 04:51:49;;;;;;;6.10;5.17;;;;;;;25.78;43.05;96447.78;5053698;28;20277;-67
2021/06/18 04:54:15;;;;;;;6.20;4.67;;;;;;;25.90;43.04;96452.88;5048035;28;20184;-66
2021/06/18 04:56:41;;;;;;;9.10;5.23;;;;;;;26.03;42.44;96441.56;5042738;28;20227;-68
2021/06/18 04:59:07;;;;;;;6.10;4.73;;;;;;;26.14;42.56;96452.34;5053858;28;20454;-66
2021/06/18 05:01:33;;;;;;;6.80;5.07;;;;;;;26.35;41.83;96455.78;5053838;28;20622;-66
2021/06/18 05:03:58;;;;;;;7.37;4.90;;;;;;;26.34;41.97;96459.53;5053250;28;20179;-65
2021/06/18 05:06:24;;;;;;;5.20;4.60;;;;;;;26.45;41.72;96460.31;5053498;28;20187;-68
2021/06/18 05:08:51;;;;;;;6.60;4.70;;;;;;;26.53;41.57;96449.84;5053316;28;20203;-67
2021/06/18 05:11:16;;;;;;;5.60;4.60;;;;;;;26.17;41.91;96455.28;5051542;28;20179;-67
2021/06/18 05:13:42;;;;;;;4.60;4.20;;;;;;;26.30;42.12;96451.22;5053141;28;20460;-66
2021/06/18 05:16:07;;;;;;;5.80;4.73;;;;;;;26.37;41.58;96450.94;5053261;28;20211;-66
2021/06/18 05:18:34;;;;;;;7.07;4.40;;;;;;;26.47;41.54;96442.84;5053511;28;20199;-67
2021/06/18 05:21:00;;;;;;;12.53;4.50;;;;;;;26.32;42.14;96442.91;5048741;28;20184;-67
2021/06/18 05:23:25;;;;;;;7.27;4.60;;;;;;;26.51;41.42;96438.56;5053074;28;20503;-66
2021/06/18 05:25:53;;;;;;;5.00;4.50;;;;;;;26.35;41.87;96432.44;5035402;28;20189;-67
2021/06/18 05:28:19;;;;;;;7.20;5.13;;;;;;;26.78;41.38;96436.56;5051885;28;20211;-67
2021/06/18 05:30:44;;;;;;;5.03;4.07;;;;;;;26.61;41.65;96439.59;5054293;28;20779;-67
2021/06/18 05:33:10;;;;;;;7.93;5.10;;;;;;;26.56;41.55;96442.31;5028998;28;20176;-67
2021/06/18 05:35:35;;;;;;;5.20;4.77;;;;;;;26.88;41.00;96438.44;5053501;28;20203;-66
2021/06/18 05:38:01;;;;;;;5.60;4.43;;;;;;;27.18;40.65;96439.34;5050867;28;20209;-68
2021/06/18 05:40:27;;;;;;;8.70;5.00;;;;;;;27.16;40.37;96436.13;5044548;28;20272;-66
2021/06/18 05:42:52;;;;;;;10.37;4.47;;;;;;;27.20;40.17;96437.19;5052526;28;20189;-67
2021/06/18 05:45:18;;;;;;;7.03;4.13;;;;;;;27.40;39.91;96442.44;5053769;28;20190;-66
2021/06/18 05:47:43;;;;;;;6.73;4.60;;;;;;;27.78;39.26;96446.47;5054068;28;20195;-66
2021/06/18 05:50:09;;;;;;;7.20;4.70;;;;;;;27.90;38.95;96442.34;5053571;28;20183;-67
2021/06/18 05:52:36;;;;;;;7.47;4.87;;;;;;;27.62;39.76;96441.22;5053248;28;20214;-66
2021/06/18 05:55:02;;;;;;;8.23;4.30;;;;;;;27.97;39.05;96443.88;5053843;28;20465;-67
2021/06/18 05:57:28;;;;;;;18.03;4.10;;;;;;;27.62;39.93;96446.59;5044582;28;20447;-67
2021/06/18 05:59:53;;;;;;;9.43;4.00;;;;;;;27.91;39.28;96451.22;5046993;28;20990;-66
2021/06/18 06:02:19;;;;;;;8.40;4.67;;;;;;;27.67;39.91;96451.94;5046428;28;20206;-65
2021/06/18 06:04:44;;;;;;;4.47;4.07;;;;;;;27.91;39.16;96459.28;5053103;28;20179;-65
2021/06/18 06:07:10;;;;;;;4.47;3.83;;;;;;;28.14;38.94;96447.00;5055029;28;20225;-67
2021/06/18 06:09:36;;;;;;;6.43;4.13;;;;;;;28.02;39.16;96457.31;5048015;28;20637;-66
2021/06/18 06:12:01;;;;;;;7.73;3.93;;;;;;;28.11;38.94;96460.22;5042273;28;20189;-66
2021/06/18 06:14:27;;;;;;;4.03;3.73;;;;;;;27.64;40.11;96452.50;5057779;28;20180;-67
2021/06/18 06:16:52;;;;;;;5.83;4.00;;;;;;;28.11;39.40;96454.81;5060589;28;20544;-70
2021/06/18 06:19:18;;;;;;;5.80;3.63;;;;;;;28.45;38.66;96451.25;5054047;28;20190;-66
2021/06/18 06:21:44;;;;;;;7.87;3.60;;;;;;;28.62;38.74;96456.19;5039562;28;20188;-66
2021/06/18 06:24:11;;;;;;;8.37;3.90;;;;;;;28.81;38.24;96458.94;5053891;28;20225;-67
2021/06/18 06:26:38;;;;;;;4.93;4.20;;;;;;;28.57;38.59;96464.31;5050001;28;20250;-68
2021/06/18 06:29:04;;;;;;;10.20;3.90;;;;;;;28.99;37.98;96457.38;5048090;28;20430;-66
2021/06/18 06:31:29;;;;;;;4.10;3.80;;;;;;;29.30;37.23;96458.84;5039393;28;20453;-67
2021/06/18 06:33:55;;;;;;;5.90;3.70;;;;;;;28.74;38.81;96459.31;5053455;28;20202;-67
2021/06/18 06:36:21;;;;;;;6.90;3.40;;;;;;;29.39;37.20;96467.91;5053637;28;20203;-67
2021/06/18 06:38:47;;;;;;;5.07;3.63;;;;;;;29.59;37.16;96458.72;5008267;28;20200;-66
2021/06/18 06:41:12;;;;;;;8.23;4.33;;;;;;;29.64;37.41;96463.22;5050551;28;20446;-66
2021/06/18 06:43:38;;;;;;;4.83;3.80;;;;;;;29.31;37.77;96465.84;5044743;28;20189;-66
2021/06/18 06:46:04;;;;;;;4.80;3.63;;;;;;;30.08;36.56;96462.00;5052928;28;20191;-66
2021/06/18 06:48:30;;;;;;;10.70;4.10;;;;;;;30.40;36.00;96468.44;5052545;28;20827;-67
2021/06/18 06:50:56;;;;;;;4.47;3.67;;;;;;;30.58;35.78;96465.97;5052164;28;20179;-66
2021/06/18 06:53:22;;;;;;;7.20;4.17;;;;;;;30.30;36.34;96465.94;5047403;28;20429;-66
2021/06/18 06:55:47;;;;;;;10.10;4.10;;;;;;;30.21;36.07;96463.09;5034389;28;20211;-67
2021/06/18 06:58:13;;;;;;;6.13;3.60;;;;;;;30.09;36.10;96466.31;5048405;28;20199;-67
2021/06/18 07:00:38;;;;;;;7.67;3.57;;;;;;;29.88;36.24;96466.59;5050774;28;20265;-67
2021/06/18 07:03:04;;;;;;;7.47;3.60;;;;;;;30.34;35.72;96464.25;5052368;28;20190;-68
2021/06/18 07:05:30;;;;;;;4.60;3.63;;;;;;;30.77;34.84;96461.25;5052084;28;20171;-66
2021/06/18 07:07:55;;;;;;;4.30;3.90;;;;;;;30.74;35.20;96461.06;5051840;28;20214;-66
2021/06/18 07:10:21;;;;;;;6.10;3.53;;;;;;;30.52;35.13;96464.44;5037167;28;20273;-67
2021/06/18 07:12:46;;;;;;;4.20;3.77;;;;;;;30.90;34.82;96465.06;5051619;28;20179;-68
2021/06/18 07:15:13;;;;;;;4.10;3.70;;;;;;;31.11;34.15;96459.22;5051060;28;20306;-67
2021/06/18 07:17:38;;;;;;;7.50;3.80;;;;;;;31.59;33.23;96460.59;5043189;28;20218;-66
2021/06/18 07:20:05;;;;;;;5.53;4.30;;;;;;;31.75;33.66;96465.69;5051065;28;20414;-65
2021/06/18 07:22:30;;;;;;;6.23;3.60;;;;;;;31.80;32.73;96477.19;5047806;28;20190;-67
2021/06/18 07:24:57;;;;;;;6.40;3.83;;;;;;;31.07;34.58;96469.84;5035649;28;20481;-66
2021/06/18 07:27:24;;;;;;;4.47;4.00;;;;;;;31.10;34.91;96463.00;5051173;28;20202;-66
2021/06/18 07:29:50;;;;;;;5.13;4.20;;;;;;;31.12;35.21;96465.44;5051536;28;20443;-65
2021/06/18 07:32:16;;;;;;;7.70;4.40;;;;;;;31.99;33.49;96466.16;5051506;28;20513;-65
2021/06/18 07:34:42;;;;;;;4.23;3.83;;;;;;;32.20;32.98;96470.25;5050365;28;20528;-66
2021/06/18 07:37:07;;;;;;;10.30;4.17;;;;;;;32.14;32.94;96474.97;5051187;28;20214;-66
2021/06/18 07:39:33;;;;;;;4.63;4.23;;;;;;;32.02;33.11;96473.63;5037946;28;20194;-67
2021/06/18 07:41:59;;;;;;;6.17;4.43;;;;;;;32.07;33.04;96477.34;5051364;28;20657;-66
2021/06/18 07:44:24;;;;;;;6.07;3.90;;;;;;;31.75;33.85;96476.50;5034296;28;20773;-66
2021/06/18 07:46:50;;;;;;;5.23;4.20;;;;;;;32.07;33.18;96478.13;5050971;28;20175;-66
2021/06/18 07:49:16;;;;;;;4.77;4.10;;;;;;;31.63;33.45;96480.50;5049833;28;20179;-65
2021/06/18 07:51:41;;;;;;;12.33;4.00;;;;;;;31.71;33.45;96474.41;5050922;28;20232;-65
2021/06/18 07:54:07;;;;;;;5.17;4.10;;;;;;;32.17;32.83;96472.47;5050859;28;20198;-66
2021/06/18 07:56:36;;;;;;;8.23;4.13;;;;;;;32.21;32.66;96469.94;5051328;28;20207;-66
2021/06/18 07:59:02;;;;;;;4.43;4.00;;;;;;;32.48;32.25;96473.59;5050739;28;20190;-66
2021/06/18 08:01:27;;;;;;;8.33;4.73;;;;;;;32.49;32.48;96472.47;5051808;28;20421;-67
2021/06/18 08:03:53;;;;;;;4.47;4.00;;;;;;;32.62;32.07;96466.16;5041138;28;20184;-68
2021/06/18 08:06:18;;;;;;;7.10;4.30;;;;;;;32.59;32.50;96464.06;5050506;28;20222;-68
2021/06/18 08:08:45;;;;;;;7.17;4.40;;;;;;;32.49;32.23;96458.94;5040973;28;20672;-67
2021/06/18 08:11:10;;;;;;;6.30;3.80;;;;;;;32.85;31.69;96449.00;5046949;28;20222;-68
2021/06/18 08:13:36;;;;;;;7.00;4.40;;;;;;;32.75;32.03;96453.56;5044967;28;20421;-66
2021/06/18 08:16:03;;;;;;;9.63;4.07;;;;;;;32.58;32.81;96448.91;5050068;28;20199;-66
2021/06/18 08:18:29;;;;;;;7.80;4.43;;;;;;;33.00;31.55;96464.03;5041956;28;20207;-66
2021/06/18 08:20:55;;;;;;;8.40;4.77;;;;;;;32.80;31.97;96454.56;5050083;28;21054;-66
2021/06/18 08:23:20;;;;;;;11.43;4.53;;;;;;;33.38;31.00;96458.03;5053641;28;20179;-66
2021/06/18 08:25:48;;;;;;;6.33;4.70;;;;;;;33.01;32.56;96460.22;5054110;28;20849;-66
2021/06/18 08:28:14;;;;;;;10.77;4.70;;;;;;;33.21;32.19;96458.78;5045973;28;20301;-65
2021/06/18 08:30:40;;;;;;;6.53;5.23;;;;;;;33.05;32.79;96451.13;5039133;28;20912;-66
2021/06/18 08:33:07;;;;;;;13.60;5.50;;;;;;;33.35;32.24;96445.88;5050692;28;20425;-67
2021/06/18 08:35:32;;;;;;;8.67;5.00;;;;;;;33.17;32.66;96447.75;5047222;28;20662;-65
2021/06/18 08:38:01;;;;;;;10.63;4.83;;;;;;;33.17;32.76;96450.47;5053636;28;20661;-65
2021/06/18 08:40:29;;;;;;;9.60;4.93;;;;;;;33.66;32.17;96452.25;5039507;28;20205;-66
2021/06/18 08:42:54;;;;;;;8.97;5.07;;;;;;;33.69;31.63;96454.34;5054944;28;20433;-67
2021/06/18 08:45:20;;;;;;;7.13;5.40;;;;;;;33.61;31.71;96452.44;5044428;28;20475;-66
2021/06/18 08:47:48;;;;;;;7.93;5.20;;;;;;;33.68;31.14;96450.03;5033074;28;20223;-67
2021/06/18 08:50:16;;;;;;;7.27;5.50;;;;;;;33.31;32.37;96444.09;5051482;28;20191;-66
2021/06/18 08:52:43;;;;;;;9.10;5.50;;;;;;;33.63;32.45;96447.50;5054091;28;20965;-66
2021/06/18 08:55:10;;;;;;;7.73;6.03;;;;;;;33.54;32.40;96448.28;5052130;28;20842;-66
2021/06/18 08:57:35;;;;;;;15.57;5.23;;;;;;;33.80;31.97;96444.72;5053931;28;20467;-68
2021/06/18 09:00:02;;;;;;;13.53;5.70;;;;;;;33.49;32.87;96448.47;5036142;28;20540;-66
2021/06/18 09:02:27;;;;;;;6.90;5.53;;;;;;;33.50;32.63;96444.63;5053880;28;20192;-68
2021/06/18 09:05:06;;;;;;;8.97;5.53;;;;;;;34.07;31.65;96440.06;5054208;28;20429;-67
2021/06/18 09:07:46;;;;;;;7.97;5.73;;;;;;;32.80;33.50;96449.94;5056617;28;20237;-67
2021/06/18 09:10:39;;;;;;;12.60;5.40;;;;;;;33.17;33.00;96441.56;5036220;28;20613;-66
2021/06/18 09:13:15;;;;;;;13.77;5.77;;;;;;;33.76;32.73;96443.81;5038944;28;20819;-66
2021/06/18 09:15:47;;;;;;;9.60;6.10;;;;;;;33.98;31.49;96444.72;5049535;28;20495;-67
2021/06/18 09:18:36;;;;;;;7.20;5.73;;;;;;;33.94;32.23;96449.22;5035846;28;20489;-67
2021/06/18 09:21:02;;;;;;;8.73;5.60;;;;;;;33.75;32.09;96438.66;5009811;28;20933;-66
2021/06/18 09:23:34;;;;;;;7.30;5.10;;;;;;;34.17;31.20;96441.63;5034526;28;20417;-66
2021/06/18 09:26:34;;;;;;;7.40;5.53;;;;;;;34.74;30.60;96445.91;5028458;28;20183;-65
2021/06/18 09:29:12;;;;;;;11.63;6.00;;;;;;;35.05;30.11;96442.03;5024143;28;20439;-66
2021/06/18 09:31:49;;;;;;;8.47;5.47;;;;;;;35.28;29.54;96447.19;5029882;28;20427;-65
2021/06/18 09:34:39;;;;;;;14.03;6.00;;;;;;;35.25;29.28;96442.38;5027647;28;20438;-66
2021/06/18 09:37:25;;;;;;;8.57;6.10;;;;;;;35.19;30.30;96439.06;5028756;28;20985;-66
2021/06/18 09:40:10;;;;;;;23.23;5.57;;;;;;;35.30;29.68;96439.44;5027030;28;20453;-67
2021/06/18 09:42:51;;;;;;;12.10;5.93;;;;;;;35.50;29.44;96437.88;5026443;28;20800;-67
2021/06/18 09:45:19;;;;;;;16.07;5.97;;;;;;;35.25;28.99;96436.13;5030900;28;20432;-66
2021/06/18 09:47:45;;;;;;;7.67;5.17;;;;;;;34.75;29.20;96433.91;5032387;28;20847;-65
2021/06/18 09:50:13;;;;;;;7.27;5.47;;;;;;;35.60;29.08;96431.22;5035609;28;20439;-67
2021/06/18 09:52:40;;;;;;;13.23;5.70;;;;;;;36.20;27.88;96441.84;5052847;28;20219;-67
2021/06/18 09:55:07;;;;;;;6.43;4.93;;;;;;;35.68;28.39;96435.78;5039142;28;21046;-66
2021/06/18 09:57:42;;;;;;;23.17;6.87;;;;;;;35.91;28.10;96435.41;5052698;28;20510;-67
2021/06/18 10:00:27;;;;;;;9.67;4.70;;;;;;;36.22;27.26;96434.13;5053740;28;20462;-66
2021/06/18 10:02:54;;;;;;;8.17;4.70;;;;;;;36.33;27.16;96429.03;5058820;28;20429;-67
2021/06/18 10:05:24;;;;;;;7.37;4.80;;;;;;;35.26;28.40;96433.09;5065532;28;20421;-66
2021/06/18 10:07:52;;;;;;;10.00;5.70;;;;;;;35.23;28.71;96428.31;5062304;28;20455;-66
2021/06/18 10:10:23;;;;;;;14.43;4.80;;;;;;;34.24;28.85;96424.84;5051758;28;20544;-65
2021/06/18 10:12:49;;;;;;;7.67;4.37;;;;;;;34.74;28.27;96418.69;5045337;28;20444;-65
2021/06/18 10:15:17;;;;;;;12.97;6.30;;;;;;;35.33;27.91;96427.91;5043484;28;20536;-66
2021/06/18 10:17:45;;;;;;;10.23;5.10;;;;;;;35.82;27.14;96427.31;5051880;28;20568;-66
2021/06/18 10:20:16;;;;;;;13.70;4.80;;;;;;;35.79;27.02;96421.75;5051407;28;20416;-66
2021/06/18 10:23:13;;;;;;;8.43;4.47;;;;;;;36.17;25.95;96430.81;5033004;28;20934;-66
2021/06/18 10:25:44;;;;;;;13.73;5.03;;;;;;;36.64;25.78;96422.22;5033033;28;20947;-66
2021/06/18 10:28:11;;;;;;;6.80;4.90;;;;;;;36.51;25.88;96418.72;5046993;28;20452;-65
2021/06/18 10:30:45;;;;;;;7.20;4.30;;;;;;;36.21;25.84;96431.75;5020664;28;20952;-65
2021/06/18 10:33:26;;;;;;;8.50;4.70;;;;;;;36.70;24.31;96415.41;5049798;28;20425;-66
2021/06/18 10:36:06;;;;;;;12.50;6.30;;;;;;;36.42;23.67;96418.81;5050371;28;20475;-65
2021/06/18 10:38:35;;;;;;;5.90;3.23;;;;;;;36.43;22.28;96427.78;5045455;28;20550;-66
2021/06/18 10:41:24;;;;;;;9.73;3.77;;;;;;;36.93;21.98;96414.13;5044889;28;20834;-66
2021/06/18 10:43:56;;;;;;;9.00;3.67;;;;;;;36.67;21.32;96415.31;5023421;28;20516;-66
2021/06/18 10:46:25;;;;;;;10.20;2.90;;;;;;;36.88;19.04;96415.13;5050952;28;20417;-66
2021/06/18 10:48:50;;;;;;;5.30;3.30;;;;;;;36.57;20.52;96414.59;5046988;28;20505;-66
2021/06/18 10:51:28;;;;;;;6.70;3.83;;;;;;;36.90;21.25;96412.88;5050674;28;20463;-67
2021/06/18 10:54:02;;;;;;;4.00;3.10;;;;;;;36.91;21.46;96402.75;5036531;28;20651;-67
2021/06/18 10:56:46;;;;;;;8.43;3.73;;;;;;;37.20;22.25;96410.66;5029097;28;20491;-67
2021/06/18 10:59:26;;;;;;;5.70;3.63;;;;;;;36.99;21.82;96410.81;5049073;28;20417;-66
2021/06/18 11:01:52;;;;;;;5.97;4.50;;;;;;;37.69;21.78;96405.38;5049339;28;20428;-66
2021/06/18 11:04:42;;;;;;;6.13;4.00;;;;;;;37.89;21.05;96403.59;5051441;28;21073;-66
2021/06/18 11:07:17;;;;;;;12.33;4.00;;;;;;;37.88;20.86;96402.78;5051241;28;20520;-66
2021/06/18 11:09:44;;;;;;;4.53;3.80;;;;;;;38.13;20.85;96396.34;5038469;28;20478;-67
2021/06/18 11:12:22;;;;;;;3.50;3.20;;;;;;;38.19;20.39;96395.75;5050655;28;20417;-66
2021/06/18 11:14:59;;;;;;;5.47;4.07;;;;;;;38.36;20.13;96391.09;5037985;28;20427;-66
2021/06/18 11:17:37;;;;;;;6.00;3.80;;;;;;;37.62;20.89;96390.34;5034904;28;20449;-66
2021/06/18 11:20:24;;;;;;;5.10;3.23;;;;;;;37.80;19.43;96393.59;5051613;28;20420;-67
2021/06/18 11:22:54;;;;;;;6.17;3.43;;;;;;;38.29;19.02;96399.09;5047532;28;20976;-64
2021/06/18 11:25:32;;;;;;;6.50;3.30;;;;;;;38.35;18.66;96386.78;5049909;28;20436;-67
2021/06/18 11:28:23;;;;;;;3.80;3.47;;;;;;;38.22;19.05;96394.22;5052188;28;20432;-67
2021/06/18 11:30:55;;;;;;;5.80;2.70;;;;;;;38.00;18.32;96384.69;5052218;28;20445;-67
2021/06/18 11:33:39;;;;;;;6.90;3.17;;;;;;;38.11;17.96;96389.31;5051508;28;21016;-68
2021/06/18 11:39:04;;;;;;;7.50;3.90;;;;;;;37.86;20.16;96390.59;5040185;28;20823;-66
2021/06/18 11:41:32;;;;;;;8.73;3.10;;;;;;;37.28;19.75;96392.53;5024939;28;20971;-67
2021/06/18 11:44:00;;;;;;;3.50;2.80;;;;;;;38.29;17.77;96390.88;5050787;28;20504;-67